Airfield :
LOGIN :

Register | Disclaimer

   EN    FR    IT 

 










Legend :    VFR   Marginal VFR   IFR   Intensive IFR   Very Intensive IFR
Visi :
Ceiling :
>= 8 km
>= 3000ft
5 to 8 km
1000 to 3000 ft
1500m to 5 km
500 to 1000 ft
800 to 1500m
200 to 500 ft
< 800m
< 200 ft
Symbols :   Thunderstorms  Fog  Heavy snow  Heavy precipitations  Wind > 20 kt
SIGMETs :     Misc.  Thunderstorms  Icing  Turbulence  Mountain Waves  Volcanic Ashes







- Airport Elevation : 348 ft
- IATA code : LDV
- Download approach charts


LFRJ - Landivisiau

CURRENT METAR :
  • 141830Z AUTO 27021G31KT 9999 -RA FEW022/// BKN035/// BKN078/// ///CB 05/03 Q0998 TEMPO 2000 TSRAGS BKN012CB

EXPIRED METARs :
  • 141800Z AUTO 28015KT 260V320 9999 -RA FEW029/// BKN042/// BKN072/// ///CB 05/03 Q0998 TEMPO 30025G40KT 2000 TSRAGS BKN012CB
  • 141730Z AUTO 29014KT 9999 FEW034/// SCT062/// ///CB 06/03 Q0998 TEMPO 30025G40KT 2000 TSRAGS BKN012CB
  • 141700Z AUTO 28013KT 9999 FEW025/// BKN034/// BKN046/// ///TCU 05/03 Q0998 TEMPO 30020G40KT SHRAGS
  • 141630Z AUTO 29014G28KT 9999 -RA FEW030/// BKN038/// BKN048/// ///CB 05/03 Q0998 TEMPO 30020G40KT SHRAGS
  • 141600Z AUTO 28017KT 9999 FEW039/// SCT050/// BKN062/// ///CB 07/03 Q0997 TEMPO 30020G40KT 2000 TSRAGS BKN012CB

TAF TAF LFRJ
Valid from the 14 at 18:00 until the 15 at 03:00 UTC


141700Z 1418/1503 29020KT 9999 SCT030 BKN040
TEMPO 1418/1503 30020G30KT 5000 SHRAGS BKN025TCU
PROB40
TEMPO 1419/1422 30025G40KT 2000 TSRAGS BKN012CB
No reported NOTAMs for that airfield.
2 SIGMETs reported for the Brest FIR (LFRR) :
 
Severe turbulence
LFRR SIGMET 15 VALID 141700/142000 LFPW
LFRR BREST FIR/UIR SEV TURB FCST WI N4730 W00800 - N4845 W00800 - N4815 W00515 - N4745 W00015 - N4630 W00015 - N4630 W00130 - N4730 W00800 FL160/300 MOV S 15KT NC=
Severe turbulence
LFRR SIGMET 14 VALID 141700/142000 LFPW
LFRR BREST FIR/UIR SEV TURB FCST WI N4630 W00045 - N4630 W00130 - N4330 W00145 - N4500 W00800 - N4900 W00800 - N5000 W00200 - N5000 W00115 - N4830 W00130 - N4830 W00400 - N4645 W00045 - N4630 W00045 SFC/FL050 STNR NC=



MET'MAP, your aeronautical weather chart ! - Copyright ORBIFLY December 2007 - Disclaimer

ORBIFLY MET'MAP TEAM :

Programming & Development : Alexandra Zaïnal
Concept & Development : Baudouin d'Aumeries
Co-Development & Prog : Marc-Olivier Méhu
Technical & hardware support : Manuel Goepfert

Contact : metmap@orbifly.com




SOURCES & CREDITS :

   NOAA